Time;durP1;ratioP1;P1;durP2;ratioP2;P2;SDS_P1;SDS_P2;PMS_P1;PMS_P2;Temp;Humidity;BMP_temperature;BMP_pressure;BME280_temperature;BME280_humidity;BME280_pressure;Samples;Min_cycle;Max_cycle;Signal;HPM_P1;HPM_P2
2022/05/03 00:00:07;;;;;;;4.60;4.07;;;20.70;58.90;;;;;;4930837;28;86326;-85
2022/05/03 00:02:53;;;;;;;4.90;4.07;;;20.70;59.40;;;;;;4930267;28;86710;-87
2022/05/03 00:05:30;;;;;;;5.90;4.57;;;20.60;58.90;;;;;;4929986;28;86360;-83
2022/05/03 00:08:02;;;;;;;4.60;3.50;;;20.60;59.10;;;;;;4929875;28;86928;-83
2022/05/03 00:10:56;;;;;;;5.40;3.63;;;20.60;59.10;;;;;;4929309;28;86648;-87
2022/05/03 00:13:27;;;;;;;4.35;3.95;;;20.60;58.70;;;;;;4924544;28;86048;-84
2022/05/03 00:15:55;;;;;;;5.07;3.95;;;20.70;58.60;;;;;;4929220;28;86754;-87
2022/05/03 00:18:21;;;;;;;5.25;3.75;;;20.60;58.60;;;;;;4931216;28;86033;-84
2022/05/03 00:20:48;;;;;;;4.55;3.70;;;20.60;58.70;;;;;;4933829;28;87748;-90
2022/05/03 00:23:15;;;;;;;4.93;4.05;;;20.60;58.80;;;;;;4928582;28;86949;-87
2022/05/03 00:25:41;;;;;;;3.75;3.25;;;20.60;58.60;;;;;;4931073;28;86882;-87
2022/05/03 00:28:08;;;;;;;6.25;4.03;;;20.70;58.80;;;;;;4928545;28;86839;-90
2022/05/03 00:30:36;;;;;;;4.55;4.05;;;20.60;58.80;;;;;;4928480;28;86671;-90
2022/05/03 00:33:04;;;;;;;4.28;3.55;;;20.60;58.70;;;;;;4932035;28;86408;-84
2022/05/03 00:35:31;;;;;;;5.35;4.43;;;20.60;58.50;;;;;;4929368;28;85849;-86
2022/05/03 00:37:56;;;;;;;6.43;4.20;;;20.60;58.60;;;;;;4930564;28;85911;-84
2022/05/03 00:40:24;;;;;;;4.53;3.70;;;20.60;58.50;;;;;;4946966;28;86936;-85
2022/05/03 00:42:56;;;;;;;4.80;3.83;;;20.60;58.40;;;;;;4930209;28;86716;-86
2022/05/03 00:45:42;;;;;;;4.30;3.85;;;20.60;58.40;;;;;;4929801;28;85867;-83
2022/05/03 00:48:44;;;;;;;4.47;3.90;;;20.60;58.40;;;;;;4929009;28;86210;-84
2022/05/03 00:51:18;;;;;;;4.97;3.78;;;20.60;57.90;;;;;;4929258;28;85831;-83
2022/05/03 00:54:17;;;;;;;4.88;3.83;;;20.60;57.90;;;;;;4929427;28;86380;-80
2022/05/03 00:56:43;;;;;;;;;;;20.60;58.20;;;;;;4931627;28;86276;-88
2022/05/03 00:59:53;;;;;;;4.90;3.97;;;20.60;58.00;;;;;;4931013;28;86353;-89
2022/05/03 01:02:33;;;;;;;5.57;4.25;;;20.60;57.60;;;;;;4925783;28;86900;-84
2022/05/03 01:05:10;;;;;;;4.30;3.83;;;20.60;58.00;;;;;;4927866;28;86057;-86
2022/05/03 01:07:58;;;;;;;4.65;3.90;;;20.60;57.80;;;;;;4927971;28;86311;-87
2022/05/03 01:10:30;;;;;;;3.97;3.45;;;20.60;57.90;;;;;;4926175;28;86814;-87
2022/05/03 01:13:11;;;;;;;4.03;3.45;;;20.50;57.60;;;;;;4931317;28;86185;-83
2022/05/03 01:15:42;;;;;;;6.00;4.05;;;20.50;57.70;;;;;;4926964;28;88074;-83
2022/05/03 01:18:15;;;;;;;4.22;3.83;;;20.50;57.40;;;;;;4928531;28;87003;-85
2022/05/03 01:20:58;;;;;;;3.85;3.45;;;20.60;57.40;;;;;;4927153;28;86365;-87
2022/05/03 01:24:23;;;;;;;5.88;4.05;;;20.50;57.70;;;;;;4929261;28;85625;-85
2022/05/03 01:26:52;;;;;;;4.25;3.83;;;20.50;57.90;;;;;;4844492;29;88052;-88
2022/05/03 01:29:31;;;;;;;5.57;3.80;;;20.50;57.90;;;;;;4912889;28;86365;-87
2022/05/03 01:32:00;;;;;;;5.60;3.80;;;20.50;58.00;;;;;;4927388;28;86497;-84
2022/05/03 01:34:28;;;;;;;4.00;3.60;;;20.50;57.80;;;;;;4927916;28;86305;-89
2022/05/03 01:36:59;;;;;;;5.13;3.75;;;20.50;58.00;;;;;;4927866;28;86519;-89
2022/05/03 01:39:31;;;;;;;3.97;3.30;;;20.50;58.20;;;;;;4926429;28;85928;-84
2022/05/03 01:42:03;;;;;;;3.90;3.50;;;20.50;58.00;;;;;;4942866;28;87425;-85
2022/05/03 01:44:56;;;;;;;3.65;3.30;;;20.50;57.90;;;;;;4928099;28;86351;-81
2022/05/03 01:47:42;;;;;;;4.07;3.42;;;20.50;58.00;;;;;;4928371;28;86340;-86
2022/05/03 01:50:20;;;;;;;3.92;3.40;;;20.50;58.20;;;;;;4929582;28;86765;-82
2022/05/03 01:52:58;;;;;;;4.43;3.77;;;20.50;57.80;;;;;;4929627;28;86575;-85
2022/05/03 01:55:35;;;;;;;4.35;3.70;;;20.50;57.70;;;;;;4944035;28;86032;-83
2022/05/03 01:58:06;;;;;;;4.75;3.65;;;20.50;57.90;;;;;;4943088;28;89217;-81
2022/05/03 02:00:36;;;;;;;3.90;3.22;;;20.50;57.70;;;;;;4941482;28;88952;-84
2022/05/03 02:03:29;;;;;;;5.03;3.60;;;20.50;57.90;;;;;;4930823;28;85692;-83
2022/05/03 02:06:11;;;;;;;4.13;3.72;;;20.50;57.80;;;;;;4928644;28;85589;-85
2022/05/03 02:08:52;;;;;;;3.75;3.40;;;20.50;58.00;;;;;;4927038;28;86520;-81
2022/05/03 02:11:46;;;;;;;3.58;3.28;;;20.50;57.90;;;;;;4927598;28;86799;-84
2022/05/03 02:14:46;;;;;;;3.60;3.30;;;20.50;57.90;;;;;;4944492;28;86181;-83
2022/05/03 02:17:18;;;;;;;4.63;3.40;;;20.40;57.80;;;;;;4924018;28;86544;-88
2022/05/03 02:19:54;;;;;;;3.83;3.50;;;20.40;57.90;;;;;;4926730;28;86437;-85
2022/05/03 02:22:46;;;;;;;3.85;3.50;;;20.40;57.70;;;;;;4925046;28;86367;-86
2022/05/03 02:25:43;;;;;;;3.70;3.40;;;20.40;57.60;;;;;;4928429;28;86208;-87
2022/05/03 02:28:30;;;;;;;4.82;3.38;;;20.40;57.90;;;;;;4926683;28;86251;-84
2022/05/03 02:31:04;;;;;;;3.55;3.20;;;20.40;57.90;;;;;;4926951;28;86585;-88
2022/05/03 02:33:38;;;;;;;3.65;3.33;;;20.40;57.90;;;;;;4927805;28;86023;-88
2022/05/03 02:36:10;;;;;;;3.45;3.15;;;20.40;58.00;;;;;;4926951;28;86339;-82
2022/05/03 02:38:49;;;;;;;3.58;3.17;;;20.40;58.10;;;;;;4926284;28;86099;-84
2022/05/03 02:41:19;;;;;;;3.80;3.38;;;20.40;58.00;;;;;;4925833;28;86381;-88
2022/05/03 02:43:46;;;;;;;3.45;3.15;;;20.40;58.00;;;;;;4927326;28;86654;-87
2022/05/03 02:46:33;;;;;;;3.97;3.28;;;20.40;58.20;;;;;;4928920;28;85666;-88
2022/05/03 02:49:04;;;;;;;4.10;3.13;;;20.40;58.10;;;;;;4940770;28;86623;-84
2022/05/03 02:51:40;;;;;;;4.18;3.55;;;20.40;58.10;;;;;;4927647;28;86215;-82
2022/05/03 02:54:20;;;;;;;4.10;3.08;;;20.40;58.00;;;;;;4928211;28;85928;-87
2022/05/03 02:57:26;;;;;;;3.40;3.10;;;20.40;58.10;;;;;;4927875;28;86233;-83
2022/05/03 03:03:07;;;;;;;3.90;3.25;;;20.40;58.00;;;;;;4930001;28;86238;-81
2022/05/03 03:05:37;;;;;;;3.28;2.97;;;20.40;58.00;;;;;;4926139;28;86407;-81
2022/05/03 03:08:04;;;;;;;3.38;3.08;;;20.40;57.80;;;;;;4928898;28;86134;-88
2022/05/03 03:10:38;;;;;;;3.38;3.03;;;20.40;57.90;;;;;;4927863;28;87162;-88
2022/05/03 03:13:31;;;;;;;3.50;3.20;;;20.30;58.00;;;;;;4925467;28;89543;-81
2022/05/03 03:15:57;;;;;;;3.83;3.35;;;20.30;58.00;;;;;;4926035;28;86872;-81
2022/05/03 03:18:24;;;;;;;3.75;3.17;;;20.40;58.00;;;;;;4925715;28;86376;-87
2022/05/03 03:21:00;;;;;;;3.65;3.30;;;20.30;57.70;;;;;;4929919;28;86079;-83
2022/05/03 03:23:30;;;;;;;3.42;3.13;;;20.40;57.80;;;;;;4941537;28;89201;-83
2022/05/03 03:25:58;;;;;;;3.97;3.05;;;20.30;57.90;;;;;;4929289;28;86428;-86
2022/05/03 03:28:23;;;;;;;4.07;3.20;;;20.30;58.00;;;;;;4927113;28;85695;-86
2022/05/03 03:30:51;;;;;;;3.40;3.10;;;20.40;58.00;;;;;;4930401;28;86126;-85
2022/05/03 03:33:21;;;;;;;3.47;3.15;;;20.30;57.70;;;;;;4923866;28;86997;-83
2022/05/03 03:35:47;;;;;;;3.17;2.88;;;20.30;57.80;;;;;;4928238;28;86447;-87
2022/05/03 03:38:13;;;;;;;3.65;3.10;;;20.30;58.50;;;;;;4928394;28;86325;-85
2022/05/03 03:40:45;;;;;;;3.42;3.13;;;20.30;57.60;;;;;;4930838;28;85983;-88
2022/05/03 03:43:11;;;;;;;3.30;3.00;;;20.30;57.80;;;;;;4924672;28;86675;-87
2022/05/03 03:45:37;;;;;;;4.45;3.60;;;20.30;58.40;;;;;;4924027;28;85857;-83
2022/05/03 03:48:04;;;;;;;2.92;2.67;;;20.30;57.80;;;;;;4926852;28;86396;-84
2022/05/03 03:50:33;;;;;;;4.07;3.00;;;20.30;57.70;;;;;;4926501;28;85653;-83
2022/05/03 03:53:05;;;;;;;3.42;3.00;;;20.30;57.60;;;;;;4926855;28;86342;-87
2022/05/03 03:55:31;;;;;;;3.88;2.85;;;20.30;57.70;;;;;;4923871;28;86392;-83
2022/05/03 03:57:57;;;;;;;4.28;3.00;;;20.30;57.60;;;;;;4928092;28;85898;-82
2022/05/03 04:00:23;;;;;;;3.88;3.20;;;20.30;57.70;;;;;;4925084;28;86605;-88
2022/05/03 04:02:49;;;;;;;3.30;3.00;;;20.30;57.70;;;;;;4927545;28;86672;-83
2022/05/03 04:05:24;;;;;;;3.75;3.33;;;20.30;57.80;;;;;;4926934;28;86086;-88
2022/05/03 04:07:51;;;;;;;3.70;3.03;;;20.30;57.90;;;;;;4926380;28;86275;-89
2022/05/03 04:10:17;;;;;;;3.25;2.95;;;20.30;57.80;;;;;;4925558;28;85765;-84
2022/05/03 04:12:43;;;;;;;3.08;2.78;;;20.20;57.70;;;;;;4925353;28;85667;-85
2022/05/03 04:15:10;;;;;;;2.85;2.60;;;20.20;57.80;;;;;;4925688;28;86569;-83
2022/05/03 04:17:35;;;;;;;2.90;2.55;;;20.20;57.80;;;;;;4929205;28;86420;-86
2022/05/03 04:20:02;;;;;;;3.85;3.03;;;20.20;57.70;;;;;;4926398;28;86545;-84
2022/05/03 04:22:30;;;;;;;2.92;2.63;;;20.20;57.60;;;;;;4924678;28;86306;-83
2022/05/03 04:24:56;;;;;;;3.20;2.90;;;20.20;57.70;;;;;;4924311;28;89202;-88
2022/05/03 04:27:39;;;;;;;3.60;2.90;;;20.20;57.80;;;;;;4924681;28;86429;-86
2022/05/03 04:30:05;;;;;;;3.38;3.08;;;20.20;57.80;;;;;;4924542;28;86157;-84
2022/05/03 04:32:32;;;;;;;3.38;3.03;;;20.20;57.70;;;;;;4926749;28;86665;-89
2022/05/03 04:34:58;;;;;;;3.35;2.90;;;20.20;57.80;;;;;;4923974;28;86684;-86
2022/05/03 04:37:24;;;;;;;2.70;2.50;;;20.20;57.80;;;;;;4929214;28;86775;-86
2022/05/03 04:39:50;;;;;;;2.75;2.55;;;20.20;57.70;;;;;;4926850;28;85931;-89
2022/05/03 04:42:16;;;;;;;3.15;2.85;;;20.20;57.80;;;;;;4929563;28;86934;-87
2022/05/03 04:44:42;;;;;;;3.75;2.80;;;20.20;57.70;;;;;;4929591;28;87109;-90
2022/05/03 04:47:08;;;;;;;3.58;2.95;;;20.20;57.60;;;;;;4927750;28;85989;-89
2022/05/03 04:49:34;;;;;;;3.15;2.85;;;20.20;57.60;;;;;;4927902;28;86626;-89
2022/05/03 04:52:00;;;;;;;2.90;2.60;;;20.20;57.70;;;;;;4931967;28;87056;-88
2022/05/03 04:54:25;;;;;;;3.30;3.00;;;20.20;57.70;;;;;;4929114;28;86318;-85
2022/05/03 04:57:09;;;;;;;3.10;2.80;;;20.20;58.30;;;;;;4929252;28;86203;-87
2022/05/03 04:59:38;;;;;;;3.38;3.08;;;20.20;57.70;;;;;;4930541;28;86504;-86
2022/05/03 05:02:04;;;;;;;2.87;2.63;;;20.20;57.70;;;;;;4930927;28;86346;-87
2022/05/03 05:04:30;;;;;;;3.17;2.75;;;20.20;57.70;;;;;;4931287;28;85592;-86
2022/05/03 05:06:55;;;;;;;5.05;2.85;;;20.20;57.80;;;;;;4929408;28;86157;-90
2022/05/03 05:09:21;;;;;;;3.45;2.97;;;20.20;57.80;;;;;;4929936;28;85996;-82
2022/05/03 05:11:48;;;;;;;2.45;2.25;;;20.20;57.90;;;;;;4930176;28;86570;-87
2022/05/03 05:14:13;;;;;;;3.75;3.03;;;20.20;57.80;;;;;;4929859;28;86278;-89
2022/05/03 05:16:39;;;;;;;3.17;2.35;;;20.20;57.80;;;;;;4946029;28;86716;-86
2022/05/03 05:19:05;;;;;;;3.45;2.50;;;20.30;57.90;;;;;;4942396;28;85914;-88
2022/05/03 05:21:30;;;;;;;2.85;2.47;;;20.30;57.90;;;;;;4932139;28;86604;-85
2022/05/03 05:23:56;;;;;;;3.13;2.70;;;20.30;58.00;;;;;;4928867;28;86195;-89
2022/05/03 05:26:22;;;;;;;3.17;2.88;;;20.20;57.80;;;;;;4926739;28;87140;-85
2022/05/03 05:28:47;;;;;;;2.80;2.60;;;20.30;57.70;;;;;;4928689;28;85659;-85
2022/05/03 05:31:13;;;;;;;2.53;2.33;;;20.30;57.60;;;;;;4930256;28;86494;-86
2022/05/03 05:33:38;;;;;;;3.67;2.72;;;20.30;57.70;;;;;;4930988;28;87472;-85
2022/05/03 05:36:04;;;;;;;3.33;2.65;;;20.30;57.80;;;;;;4932672;28;86523;-88
2022/05/03 05:38:30;;;;;;;2.58;2.38;;;20.30;57.70;;;;;;4933337;28;85750;-89
2022/05/03 05:40:56;;;;;;;2.63;2.42;;;20.30;57.70;;;;;;4931105;28;87073;-84
2022/05/03 05:43:21;;;;;;;2.55;2.25;;;20.30;57.60;;;;;;4931092;28;86441;-87
2022/05/03 05:45:48;;;;;;;2.80;2.60;;;20.30;57.60;;;;;;4929447;28;86331;-86
2022/05/03 05:48:21;;;;;;;2.97;2.67;;;20.30;57.70;;;;;;4929676;28;85916;-90
2022/05/03 05:50:47;;;;;;;2.78;2.58;;;20.30;57.70;;;;;;4930713;28;86404;-85
2022/05/03 05:55:56;;;;;;;2.83;2.53;;;20.30;57.90;;;;;;4929909;28;85749;-89
2022/05/03 05:58:22;;;;;;;3.33;2.65;;;20.30;58.00;;;;;;4927550;28;86463;-89
2022/05/03 06:00:48;;;;;;;5.60;2.60;;;20.30;57.20;;;;;;4928745;28;86542;-87
2022/05/03 06:03:14;;;;;;;2.28;2.08;;;20.30;57.80;;;;;;4932182;28;86158;-83
2022/05/03 06:05:40;;;;;;;3.25;2.88;;;20.40;57.80;;;;;;4929916;28;86207;-85
2022/05/03 06:08:06;;;;;;;2.75;2.53;;;20.40;57.70;;;;;;4934093;28;85564;-86
2022/05/03 06:10:32;;;;;;;3.58;2.65;;;20.40;57.80;;;;;;4929493;28;86477;-87
2022/05/03 06:12:59;;;;;;;2.70;2.50;;;20.40;57.90;;;;;;4948062;28;87404;-84
2022/05/03 06:15:24;;;;;;;3.47;2.97;;;20.40;58.10;;;;;;4932028;28;85761;-90
2022/05/03 06:17:54;;;;;;;6.30;3.60;;;20.40;58.30;;;;;;4929041;28;86625;-86
2022/05/03 06:20:28;;;;;;;3.50;3.20;;;20.40;59.00;;;;;;4930821;28;86521;-89
2022/05/03 06:22:54;;;;;;;17.30;4.50;;;20.40;59.00;;;;;;4929117;28;86178;-89
2022/05/03 06:25:19;;;;;;;9.40;4.00;;;20.40;56.10;;;;;;4946244;28;85980;-91
2022/05/03 06:27:45;;;;;;;7.50;3.97;;;20.40;53.10;;;;;;4928972;28;86114;-84
2022/05/03 06:30:11;;;;;;;7.75;4.18;;;20.30;49.70;;;;;;4928082;28;87059;-86
2022/05/03 06:32:37;;;;;;;9.73;3.90;;;20.30;51.60;;;;;;4928765;28;86574;-81
2022/05/03 06:35:04;;;;;;;8.50;3.72;;;20.30;53.20;;;;;;4927643;28;86107;-85
2022/05/03 06:37:29;;;;;;;12.25;4.00;;;20.30;55.00;;;;;;4930121;28;85609;-79
2022/05/03 06:39:55;;;;;;;8.90;3.50;;;20.30;54.80;;;;;;4926740;28;85920;-83
2022/05/03 06:42:21;;;;;;;8.85;3.15;;;20.30;54.70;;;;;;4925599;28;87489;-88
2022/05/03 06:44:47;;;;;;;5.68;3.28;;;20.40;55.20;;;;;;4928931;28;86338;-85
2022/05/03 06:47:13;;;;;;;3.65;2.95;;;20.40;54.70;;;;;;4929603;28;86383;-79
2022/05/03 06:49:38;;;;;;;6.32;3.10;;;20.40;54.40;;;;;;4930257;28;87370;-81
2022/05/03 06:52:04;;;;;;;5.97;3.10;;;20.40;54.50;;;;;;4927381;28;88609;-85
2022/05/03 06:54:30;;;;;;;6.68;2.95;;;20.40;55.00;;;;;;4928780;28;86150;-84
2022/05/03 06:56:55;;;;;;;5.88;3.10;;;20.40;54.40;;;;;;4931617;28;86098;-85
2022/05/03 06:59:28;;;;;;;5.15;3.00;;;20.40;54.40;;;;;;4929467;28;85900;-83
2022/05/03 07:01:53;;;;;;;3.70;2.85;;;20.40;54.50;;;;;;4868769;28;86572;-80
2022/05/03 07:04:19;;;;;;;5.28;3.38;;;20.40;54.50;;;;;;4919001;28;86052;-84
2022/05/03 07:06:45;;;;;;;5.50;3.42;;;20.50;54.30;;;;;;4920953;28;86117;-85
2022/05/03 07:09:10;;;;;;;6.65;3.05;;;20.40;52.60;;;;;;4919939;28;86305;-87
2022/05/03 07:11:36;;;;;;;5.47;3.45;;;20.40;51.80;;;;;;4918847;28;86705;-84
2022/05/03 07:14:01;;;;;;;5.47;3.35;;;20.40;52.40;;;;;;4918252;28;85980;-87
2022/05/03 07:16:27;;;;;;;7.25;2.97;;;20.40;53.70;;;;;;4916537;28;86770;-81
2022/05/03 07:24:45;;;;;;;12.32;3.50;;;20.50;53.60;;;;;;4887298;28;86621;-83
2022/05/03 07:27:10;;;;;;;9.25;2.92;;;20.50;54.10;;;;;;4893975;28;85836;-86
2022/05/03 07:29:37;;;;;;;10.00;3.03;;;20.50;53.90;;;;;;4915658;28;87081;-80
2022/05/03 07:32:03;;;;;;;9.15;2.55;;;20.50;53.90;;;;;;4917409;28;86684;-86
2022/05/03 07:34:29;;;;;;;10.63;2.75;;;20.50;54.60;;;;;;4915367;28;86416;-81
2022/05/03 07:36:54;;;;;;;22.02;5.80;;;20.50;54.90;;;;;;4913998;28;86708;-84
2022/05/03 07:39:20;;;;;;;63.85;13.75;;;20.50;54.70;;;;;;4914021;28;90206;-82
2022/05/03 07:41:45;;;;;;;56.33;12.82;;;20.50;54.70;;;;;;4914852;28;86508;-84
2022/05/03 07:44:11;;;;;;;44.67;12.68;;;20.50;55.10;;;;;;4916364;28;86717;-84
2022/05/03 07:46:37;;;;;;;43.83;10.85;;;20.50;54.20;;;;;;4915215;28;86201;-87
2022/05/03 07:49:02;;;;;;;47.03;11.88;;;20.50;53.20;;;;;;4917811;28;86403;-84
2022/05/03 07:51:28;;;;;;;48.47;12.25;;;20.50;53.80;;;;;;4916658;28;85528;-82
2022/05/03 07:53:53;;;;;;;56.40;11.73;;;20.50;53.60;;;;;;4916720;28;85899;-80
2022/05/03 07:56:21;;;;;;;36.10;10.80;;;20.50;52.90;;;;;;4915753;28;86089;-86
2022/05/03 07:58:47;;;;;;;44.53;9.65;;;20.50;52.60;;;;;;4917246;28;86770;-87
2022/05/03 08:01:13;;;;;;;41.45;9.90;;;20.50;52.20;;;;;;4917364;28;85801;-80
2022/05/03 08:03:38;;;;;;;43.67;10.30;;;20.50;52.20;;;;;;4916888;28;86947;-85
2022/05/03 08:06:04;;;;;;;34.15;9.95;;;20.50;52.10;;;;;;4917278;28;86756;-86
2022/05/03 08:08:30;;;;;;;30.30;9.35;;;20.50;52.10;;;;;;4916163;28;87299;-83
2022/05/03 08:10:55;;;;;;;34.00;9.40;;;20.50;52.20;;;;;;4930360;28;88898;-84
2022/05/03 08:13:21;;;;;;;30.67;9.55;;;20.50;52.70;;;;;;4931539;28;86087;-83
2022/05/03 08:15:47;;;;;;;30.58;8.77;;;20.50;52.00;;;;;;4918279;28;86557;-79
2022/05/03 08:18:13;;;;;;;32.88;9.50;;;20.50;51.90;;;;;;4919702;28;86173;-82
2022/05/03 08:20:39;;;;;;;30.17;9.02;;;20.50;51.80;;;;;;4920418;28;86676;-86
2022/05/03 08:23:05;;;;;;;29.55;9.05;;;20.50;51.70;;;;;;4920981;28;86192;-86
2022/05/03 08:25:32;;;;;;;25.27;8.00;;;20.50;51.10;;;;;;4919801;28;86389;-85
2022/05/03 08:27:58;;;;;;;28.20;8.70;;;20.50;51.70;;;;;;4919453;28;86388;-83
2022/05/03 08:30:24;;;;;;;28.13;7.50;;;20.50;51.40;;;;;;4920261;28;86898;-87
2022/05/03 08:32:49;;;;;;;31.98;8.50;;;20.50;51.40;;;;;;4920606;28;86553;-85
2022/05/03 08:35:15;;;;;;;25.88;7.50;;;20.50;51.20;;;;;;4919764;28;85803;-81
2022/05/03 08:43:11;;;;;;;22.40;7.28;;;20.50;51.30;;;;;;4918918;28;86055;-84
2022/05/03 08:45:37;;;;;;;21.17;6.18;;;20.50;50.90;;;;;;4919143;28;85770;-86
2022/05/03 08:48:03;;;;;;;16.95;6.60;;;20.60;51.00;;;;;;4919413;28;86816;-81
2022/05/03 08:50:32;;;;;;;17.77;6.60;;;20.50;50.90;;;;;;4919412;28;86327;-82
2022/05/03 08:53:01;;;;;;;15.23;5.53;;;20.50;50.70;;;;;;4918398;28;86212;-83
2022/05/03 08:55:28;;;;;;;16.98;5.65;;;20.50;50.80;;;;;;4920843;28;86493;-84
2022/05/03 08:57:54;;;;;;;18.10;5.70;;;20.50;50.50;;;;;;4918512;28;87001;-86
2022/05/03 09:00:24;;;;;;;19.58;6.43;;;20.50;50.70;;;;;;4918865;28;86853;-79
2022/05/03 09:02:53;;;;;;;;;;;20.50;50.40;;;;;;4919241;28;86456;-84
2022/05/03 09:05:19;;;;;;;;;;;20.60;50.40;;;;;;4920834;28;86079;-85
2022/05/03 09:07:50;;;;;;;15.63;4.97;;;20.50;50.30;;;;;;4918453;28;87021;-78
2022/05/03 09:10:20;;;;;;;15.23;4.93;;;20.60;50.30;;;;;;4919514;28;85754;-80
2022/05/03 09:12:47;;;;;;;16.65;4.90;;;20.50;50.60;;;;;;4933295;28;86496;-80
2022/05/03 09:15:13;;;;;;;14.65;4.43;;;20.50;50.00;;;;;;4919275;28;86625;-81
2022/05/03 09:17:46;;;;;;;17.50;4.72;;;20.50;50.20;;;;;;4919579;28;85977;-81
2022/05/03 09:26:13;;;;;;;12.20;4.53;;;20.60;50.30;;;;;;4918130;28;85631;-84
2022/05/03 09:28:54;;;;;;;14.70;4.82;;;20.60;50.40;;;;;;4918098;28;86466;-87
2022/05/03 09:31:37;;;;;;;13.52;3.83;;;20.60;50.40;;;;;;4932721;28;88901;-86
2022/05/03 09:34:27;;;;;;;13.73;4.00;;;20.60;50.20;;;;;;4920920;28;85957;-80
2022/05/03 09:37:04;;;;;;;11.05;4.07;;;20.60;50.30;;;;;;4920009;28;85842;-82
2022/05/03 09:39:41;;;;;;;12.52;4.53;;;20.60;50.30;;;;;;4920261;28;86838;-84
2022/05/03 09:42:12;;;;;;;10.65;5.00;;;20.60;50.30;;;;;;4917293;28;88968;-89
2022/05/03 09:44:50;;;;;;;9.07;3.75;;;20.60;50.30;;;;;;4919885;28;86391;-83
2022/05/03 09:47:17;;;;;;;11.85;4.03;;;20.60;50.40;;;;;;4918987;28;86530;-80
2022/05/03 09:49:43;;;;;;;10.68;4.43;;;20.60;50.00;;;;;;4918546;28;87047;-81
2022/05/03 09:52:35;;;;;;;10.60;4.07;;;20.60;50.00;;;;;;4917926;28;86357;-80
2022/05/03 09:55:05;;;;;;;10.02;4.13;;;20.60;49.80;;;;;;4932172;28;86302;-80
2022/05/03 09:57:32;;;;;;;11.27;3.60;;;20.60;49.80;;;;;;4919016;28;86279;-87
2022/05/03 09:59:59;;;;;;;10.52;3.88;;;20.60;49.70;;;;;;4919452;28;86672;-88
2022/05/03 10:02:27;;;;;;;9.73;4.55;;;20.60;49.90;;;;;;4918930;28;86215;-81
2022/05/03 10:04:56;;;;;;;9.40;3.90;;;20.60;50.10;;;;;;4920296;28;86283;-86
2022/05/03 10:07:22;;;;;;;11.52;4.25;;;20.60;50.40;;;;;;4920461;28;86060;-84
2022/05/03 10:09:48;;;;;;;12.00;3.55;;;20.60;50.30;;;;;;4917680;28;89578;-84
2022/05/03 10:12:15;;;;;;;10.48;3.92;;;20.60;50.30;;;;;;4918292;28;87423;-83
2022/05/03 10:14:41;;;;;;;8.70;3.80;;;20.60;50.40;;;;;;4920368;28;86230;-85
2022/05/03 10:22:54;;;;;;;7.47;3.97;;;20.60;50.30;;;;;;4921026;28;86411;-83
2022/05/03 10:25:42;;;;;;;14.48;4.05;;;20.60;50.40;;;;;;4919766;28;86498;-85
2022/05/03 10:28:15;;;;;;;8.10;3.72;;;20.60;50.60;;;;;;4917336;28;86272;-85
2022/05/03 10:31:06;;;;;;;7.32;3.42;;;20.60;50.60;;;;;;4918247;28;86563;-85
2022/05/03 10:33:32;;;;;;;8.60;3.45;;;20.60;50.70;;;;;;4919636;28;86545;-84
2022/05/03 10:35:59;;;;;;;11.70;4.05;;;20.70;50.90;;;;;;4920312;28;86696;-83
2022/05/03 10:38:39;;;;;;;7.75;3.17;;;20.60;50.70;;;;;;4918519;28;86279;-85
2022/05/03 10:41:10;;;;;;;9.15;3.25;;;20.60;50.70;;;;;;4932472;28;90221;-87
2022/05/03 10:43:37;;;;;;;9.55;3.10;;;20.60;50.40;;;;;;4919009;28;86741;-87
2022/05/03 10:46:14;;;;;;;6.35;2.92;;;20.60;50.40;;;;;;4934352;28;86034;-81
2022/05/03 10:48:41;;;;;;;8.32;3.15;;;20.60;50.10;;;;;;4919190;28;86109;-82
2022/05/03 10:51:13;;;;;;;8.65;3.40;;;20.60;50.40;;;;;;4919198;28;87461;-84
2022/05/03 10:53:43;;;;;;;7.25;3.17;;;20.60;50.00;;;;;;4918554;28;85889;-85
2022/05/03 10:56:10;;;;;;;15.63;3.20;;;20.60;50.00;;;;;;4919010;28;86097;-85
2022/05/03 10:58:38;;;;;;;8.05;2.92;;;20.60;49.80;;;;;;4918840;28;85782;-88
2022/05/03 11:01:04;;;;;;;11.27;3.97;;;20.60;50.10;;;;;;4918813;28;86877;-87
2022/05/03 11:03:31;;;;;;;8.23;3.00;;;20.60;50.30;;;;;;4919442;28;86079;-87
2022/05/03 11:06:18;;;;;;;17.23;3.65;;;20.60;49.90;;;;;;4920000;28;85893;-90
2022/05/03 11:08:59;;;;;;;6.15;3.10;;;20.60;50.20;;;;;;4936044;28;85605;-86
2022/05/03 11:11:42;;;;;;;5.68;3.25;;;20.60;50.40;;;;;;4919481;28;86751;-84
2022/05/03 11:14:34;;;;;;;7.18;3.10;;;20.60;50.10;;;;;;4919490;28;85953;-83
2022/05/03 11:17:04;;;;;;;6.97;2.90;;;20.60;50.20;;;;;;4918671;28;86133;-89
2022/05/03 11:19:32;;;;;;;6.63;3.35;;;20.60;50.20;;;;;;4919584;28;86850;-89
2022/05/03 11:21:58;;;;;;;9.45;3.40;;;20.60;50.20;;;;;;4918955;28;87295;-79
2022/05/03 11:24:27;;;;;;;8.05;2.97;;;20.60;50.20;;;;;;4920192;28;85955;-87
2022/05/03 11:26:54;;;;;;;5.72;2.92;;;20.60;50.30;;;;;;4920215;28;86358;-88
2022/05/03 11:29:21;;;;;;;6.50;2.75;;;20.60;50.30;;;;;;4919254;28;86368;-85
2022/05/03 11:31:51;;;;;;;7.03;2.60;;;20.60;50.60;;;;;;4919775;28;86523;-84
2022/05/03 11:34:18;;;;;;;7.68;2.83;;;20.60;50.70;;;;;;4919082;28;86214;-82
2022/05/03 11:36:56;;;;;;;6.00;2.65;;;20.60;50.50;;;;;;4934463;28;86563;-81
2022/05/03 11:39:22;;;;;;;4.90;2.65;;;20.60;50.60;;;;;;4919670;28;87118;-84
2022/05/03 11:41:48;;;;;;;8.48;2.70;;;20.60;50.60;;;;;;4918427;28;86282;-83
2022/05/03 11:44:16;;;;;;;6.30;3.17;;;20.60;50.60;;;;;;4919232;28;86706;-81
2022/05/03 11:46:43;;;;;;;6.15;2.63;;;20.60;50.60;;;;;;4919836;28;86588;-80
2022/05/03 11:49:11;;;;;;;6.70;2.40;;;20.60;50.60;;;;;;4918431;28;86051;-86
2022/05/03 11:57:19;;;;;;;7.25;2.67;;;20.60;50.40;;;;;;4919369;28;85918;-81
2022/05/03 11:59:45;;;;;;;14.77;2.97;;;20.60;50.50;;;;;;4918849;28;85931;-86
2022/05/03 12:02:36;;;;;;;7.85;3.20;;;20.60;50.50;;;;;;4918847;28;86542;-82
2022/05/03 12:05:04;;;;;;;6.50;2.40;;;20.60;50.90;;;;;;4912705;28;86074;-83
2022/05/03 12:07:57;;;;;;;8.55;2.85;;;20.60;50.90;;;;;;4920160;28;86180;-80
2022/05/03 12:10:30;;;;;;;5.47;2.58;;;20.60;50.50;;;;;;4911051;28;86437;-81
2022/05/03 12:13:13;;;;;;;4.40;2.55;;;20.60;50.40;;;;;;4918682;28;86308;-84
2022/05/03 12:16:08;;;;;;;5.72;2.50;;;20.60;50.60;;;;;;4919155;28;85737;-84
2022/05/03 12:18:45;;;;;;;5.68;2.25;;;20.60;50.70;;;;;;4915878;28;86113;-89
2022/05/03 12:21:21;;;;;;;9.20;2.22;;;20.60;50.60;;;;;;4918832;28;85793;-83
2022/05/03 12:23:52;;;;;;;5.85;2.50;;;20.60;50.70;;;;;;4918383;28;86568;-81
2022/05/03 12:26:35;;;;;;;5.05;2.42;;;20.60;50.70;;;;;;4917749;28;86262;-84
2022/05/03 12:29:01;;;;;;;9.88;2.70;;;20.60;50.70;;;;;;4919418;28;85713;-89
2022/05/03 12:31:35;;;;;;;7.45;2.25;;;20.60;50.60;;;;;;4919537;28;86182;-83
2022/05/03 12:34:02;;;;;;;8.00;2.85;;;20.60;50.60;;;;;;4919643;28;86431;-85
2022/05/03 12:36:40;;;;;;;6.35;2.50;;;20.60;50.20;;;;;;4919416;28;86198;-85
2022/05/03 12:39:09;;;;;;;8.20;2.33;;;20.60;50.50;;;;;;4916498;28;86262;-88
2022/05/03 12:41:35;;;;;;;6.38;2.90;;;20.60;50.50;;;;;;4917921;28;86709;-85
2022/05/03 12:44:12;;;;;;;9.60;3.00;;;20.60;50.60;;;;;;4891350;28;92733;-83
2022/05/03 12:46:39;;;;;;;6.95;2.60;;;20.60;51.10;;;;;;4917777;28;88607;-83
2022/05/03 12:49:11;;;;;;;6.10;2.40;;;20.60;50.30;;;;;;4917107;28;85787;-86
2022/05/03 12:51:39;;;;;;;4.65;2.25;;;20.60;50.40;;;;;;4917496;28;85688;-84
2022/05/03 12:54:05;;;;;;;6.60;2.67;;;20.60;50.60;;;;;;4932304;28;89527;-88
2022/05/03 12:59:15;;;;;;;7.55;3.05;;;20.60;50.70;;;;;;4917422;28;86135;-87
2022/05/03 13:01:42;;;;;;;7.82;2.65;;;20.60;50.80;;;;;;4919351;28;86157;-83
2022/05/03 13:04:09;;;;;;;5.50;2.40;;;20.50;50.60;;;;;;4921495;28;86396;-85
2022/05/03 13:06:35;;;;;;;4.72;2.60;;;20.50;50.70;;;;;;4922703;28;87551;-90
2022/05/03 13:09:01;;;;;;;7.75;2.42;;;20.60;50.80;;;;;;4922455;28;86130;-87
2022/05/03 13:11:27;;;;;;;8.43;2.90;;;20.50;50.50;;;;;;4922581;28;85628;-87
2022/05/03 13:13:57;;;;;;;8.93;2.70;;;20.50;50.80;;;;;;4922207;28;86497;-89
2022/05/03 13:16:25;;;;;;;7.22;2.50;;;20.60;50.60;;;;;;4920473;28;86404;-90
2022/05/03 13:18:50;;;;;;;7.57;2.40;;;20.50;50.60;;;;;;4921015;28;86079;-86
2022/05/03 13:21:16;;;;;;;5.82;2.78;;;20.50;50.50;;;;;;4919689;28;86397;-87
2022/05/03 13:23:42;;;;;;;6.65;3.00;;;20.50;50.20;;;;;;4919490;28;85865;-89
2022/05/03 13:26:07;;;;;;;5.50;2.70;;;20.60;49.20;;;;;;4919191;28;86019;-85
2022/05/03 13:28:33;;;;;;;5.35;2.65;;;20.50;49.60;;;;;;4918669;28;86302;-83
2022/05/03 13:30:59;;;;;;;8.25;3.28;;;20.60;50.00;;;;;;4919230;28;86712;-83
2022/05/03 13:33:25;;;;;;;6.32;2.33;;;20.50;49.90;;;;;;4920384;28;87477;-81
2022/05/03 13:41:30;;;;;;;3.97;2.50;;;20.60;49.40;;;;;;4920598;28;86597;-81
2022/05/03 13:43:58;;;;;;;6.03;2.80;;;20.60;49.30;;;;;;4921376;28;86347;-84
2022/05/03 13:46:23;;;;;;;5.05;2.40;;;20.60;49.60;;;;;;4921466;28;85777;-88